Time,TemperatureF,DewpointF,PressureIn,WindDirection,WindDirectionDegrees,WindSpeedMPH,WindSpeedGustMPH,Humidity,HourlyPrecipIn,Conditions,Clouds,dailyrainin,SoftwareType,DateUTC
2015-08-04 00:09:00,59.1,54.0,29.95,ESE,112,0.0,0.0,83,0.00,,,0.00,weatherlink.com 1.10,2015-08-04 07:09:00,
2015-08-04 00:24:00,58.6,54.0,29.95,ESE,112,0.0,0.0,84,0.00,,,0.00,weatherlink.com 1.10,2015-08-04 07:24:00,
2015-08-04 00:39:00,58.4,54.0,29.96,SSW,210,0.0,0.0,84,0.00,,,0.00,weatherlink.com 1.10,2015-08-04 07:39:00,
2015-08-04 00:54:00,58.2,54.0,29.95,SSW,205,0.0,1.0,85,0.00,,,0.00,weatherlink.com 1.10,2015-08-04 07:54:00,
2015-08-04 01:09:00,58.4,54.0,29.96,SE,131,0.0,1.0,84,0.00,,,0.00,weatherlink.com 1.10,2015-08-04 08:09:00,
2015-08-04 01:24:00,58.3,54.0,29.96,SSW,199,0.0,2.0,84,0.00,,,0.00,weatherlink.com 1.10,2015-08-04 08:24:00,
2015-08-04 01:39:00,58.5,54.0,29.95,SSW,196,0.0,0.0,84,0.00,,,0.00,weatherlink.com 1.10,2015-08-04 08:39:00,
2015-08-04 01:54:00,58.1,53.0,29.95,SSW,196,0.0,0.0,84,0.00,,,0.00,weatherlink.com 1.10,2015-08-04 08:54:00,
2015-08-04 02:09:00,57.5,53.0,29.95,SSW,196,0.0,0.0,85,0.00,,,0.00,weatherlink.com 1.10,2015-08-04 09:09:00,
2015-08-04 02:24:00,57.3,54.0,29.95,SSW,196,0.0,0.0,87,0.00,,,0.00,weatherlink.com 1.10,2015-08-04 09:24:00,
2015-08-04 02:39:00,57.3,54.0,29.94,SSW,197,0.0,0.0,87,0.00,,,0.00,weatherlink.com 1.10,2015-08-04 09:39:00,
2015-08-04 02:54:00,57.1,53.0,29.95,SSW,197,0.0,0.0,87,0.00,,,0.00,weatherlink.com 1.10,2015-08-04 09:54:00,
2015-08-04 03:09:00,56.6,53.0,29.95,SSW,197,0.0,0.0,87,0.00,,,0.00,weatherlink.com 1.10,2015-08-04 10:09:00,
2015-08-04 03:24:00,56.4,53.0,29.96,SSW,197,0.0,0.0,89,0.00,,,0.00,weatherlink.com 1.10,2015-08-04 10:24:00,
2015-08-04 03:39:00,56.8,54.0,29.95,SSW,197,0.0,0.0,89,0.00,,,0.00,weatherlink.com 1.10,2015-08-04 10:39:00,
2015-08-04 03:55:00,57.1,54.0,29.95,SSW,196,0.0,0.0,90,0.00,,,0.00,weatherlink.com 1.10,2015-08-04 10:55:00,
2015-08-04 04:10:00,57.5,54.0,29.95,SSW,196,0.0,0.0,89,0.00,,,0.00,weatherlink.com 1.10,2015-08-04 11:10:00,
2015-08-04 04:25:00,57.5,54.0,29.95,South,191,0.0,0.0,89,0.00,,,0.00,weatherlink.com 1.10,2015-08-04 11:25:00,
2015-08-04 04:40:00,57.3,54.0,29.95,South,191,0.0,0.0,89,0.00,,,0.00,weatherlink.com 1.10,2015-08-04 11:40:00,
2015-08-04 04:55:00,57.0,54.0,29.95,South,191,0.0,0.0,88,0.00,,,0.00,weatherlink.com 1.10,2015-08-04 11:55:00,
2015-08-04 05:10:00,56.7,53.0,29.95,South,191,0.0,0.0,88,0.00,,,0.00,weatherlink.com 1.10,2015-08-04 12:10:00,
2015-08-04 05:25:00,56.5,53.0,29.95,South,191,0.0,0.0,89,0.00,,,0.00,weatherlink.com 1.10,2015-08-04 12:25:00,
2015-08-04 05:40:00,56.4,54.0,29.95,SSW,192,0.0,0.0,90,0.00,,,0.00,weatherlink.com 1.10,2015-08-04 12:40:00,
2015-08-04 05:55:00,56.1,53.0,29.95,South,191,0.0,0.0,90,0.00,,,0.00,weatherlink.com 1.10,2015-08-04 12:55:00,
2015-08-04 06:10:00,56.0,54.0,29.94,SSW,192,0.0,0.0,91,0.00,,,0.00,weatherlink.com 1.10,2015-08-04 13:10:00,
2015-08-04 06:25:00,55.6,53.0,29.95,South,191,0.0,0.0,91,0.00,,,0.00,weatherlink.com 1.10,2015-08-04 13:25:00,
2015-08-04 06:40:00,55.4,53.0,29.96,South,191,0.0,0.0,91,0.00,,,0.00,weatherlink.com 1.10,2015-08-04 13:40:00,
2015-08-04 06:55:00,55.7,54.0,29.96,South,191,0.0,0.0,92,0.00,,,0.00,weatherlink.com 1.10,2015-08-04 13:55:00,
2015-08-04 07:10:00,56.4,54.0,29.96,South,191,0.0,0.0,91,0.00,,,0.00,weatherlink.com 1.10,2015-08-04 14:10:00,
2015-08-04 07:25:00,57.4,55.0,29.96,South,191,0.0,0.0,91,0.00,,,0.00,weatherlink.com 1.10,2015-08-04 14:25:00,
2015-08-04 07:40:00,59.4,56.0,29.96,SSW,192,0.0,0.0,88,0.00,,,0.00,weatherlink.com 1.10,2015-08-04 14:40:00,
2015-08-04 07:55:00,60.5,56.0,29.97,South,191,0.0,0.0,84,0.00,,,0.00,weatherlink.com 1.10,2015-08-04 14:55:00,
2015-08-04 08:10:00,61.4,56.0,29.96,East,98,0.0,3.0,83,0.00,,,0.00,weatherlink.com 1.10,2015-08-04 15:10:00,